Time;durP1;ratioP1;P1;durP2;ratioP2;P2;SDS_P1;SDS_P2;PMS_P1;PMS_P2;Temp;Humidity;BMP_temperature;BMP_pressure;BME280_temperature;BME280_humidity;BME280_pressure;Samples;Min_cycle;Max_cycle;Signal;HPM_P1;HPM_P2
2022/04/09 00:02:01;;;;;;;9.88;2.67;;;7.30;57.80;;;;;;5078251;28;20454;-47
2022/04/09 00:04:29;;;;;;;10.50;2.42;;;7.30;57.70;;;;;;5074012;28;20431;-44
2022/04/09 00:06:56;;;;;;;9.48;2.58;;;7.30;57.70;;;;;;5073899;28;20059;-43
2022/04/09 00:09:25;;;;;;;12.23;2.50;;;7.30;57.60;;;;;;5071412;28;20052;-43
2022/04/09 00:11:53;;;;;;;12.35;2.42;;;7.30;57.60;;;;;;5071979;28;20145;-43
2022/04/09 00:14:20;;;;;;;12.93;2.20;;;7.30;57.70;;;;;;5076317;28;20060;-44
2022/04/09 00:16:50;;;;;;;6.20;2.22;;;7.30;57.80;;;;;;5072350;28;20047;-43
2022/04/09 00:19:17;;;;;;;12.55;2.63;;;7.30;57.80;;;;;;5080114;28;20403;-44
2022/04/09 00:21:46;;;;;;;14.52;2.17;;;7.30;57.80;;;;;;5081256;28;20048;-44
2022/04/09 00:24:13;;;;;;;7.88;2.17;;;7.30;57.80;;;;;;5062463;28;20322;-44
2022/04/09 00:26:41;;;;;;;10.48;2.13;;;7.30;57.90;;;;;;5074583;28;20056;-43
2022/04/09 00:29:09;;;;;;;9.93;2.45;;;7.30;58.00;;;;;;5083082;28;20495;-46
2022/04/09 00:31:36;;;;;;;10.60;2.25;;;7.30;58.10;;;;;;5080633;28;20439;-45
2022/04/09 00:34:05;;;;;;;7.95;2.30;;;7.30;58.10;;;;;;5083038;28;20048;-44
2022/04/09 00:36:33;;;;;;;14.35;2.70;;;7.40;58.30;;;;;;5082590;28;20447;-44
2022/04/09 00:39:00;;;;;;;16.23;2.47;;;7.40;58.30;;;;;;5074759;28;20052;-45
2022/04/09 00:41:27;;;;;;;10.73;2.40;;;7.40;58.30;;;;;;5058642;28;20056;-45
2022/04/09 00:43:55;;;;;;;10.88;2.65;;;7.40;58.30;;;;;;5059464;28;20056;-44
2022/04/09 00:46:23;;;;;;;9.40;2.67;;;7.50;58.30;;;;;;5055735;28;20053;-44
2022/04/09 00:48:51;;;;;;;10.13;3.05;;;7.50;58.30;;;;;;5063600;28;20052;-43
2022/04/09 00:51:20;;;;;;;15.98;3.17;;;7.50;58.10;;;;;;5055807;28;20056;-46
2022/04/09 00:53:52;;;;;;;11.68;3.22;;;7.60;58.10;;;;;;5062442;28;20060;-43
2022/04/09 00:56:22;;;;;;;15.02;2.97;;;7.60;58.00;;;;;;5059510;28;20053;-47
2022/04/09 00:58:55;;;;;;;12.63;3.65;;;7.70;57.90;;;;;;5061088;28;20049;-43
2022/04/09 01:01:25;;;;;;;12.87;2.63;;;7.70;57.90;;;;;;5059640;28;20060;-43
2022/04/09 01:03:53;;;;;;;16.25;3.42;;;7.70;57.80;;;;;;5056438;28;20502;-43
2022/04/09 01:06:22;;;;;;;10.63;3.05;;;7.70;57.70;;;;;;5059197;28;20064;-43
2022/04/09 01:08:49;;;;;;;12.20;3.72;;;7.70;57.70;;;;;;5059982;28;20060;-43
2022/04/09 01:11:17;;;;;;;7.32;2.90;;;7.80;57.70;;;;;;5058018;28;20503;-45
2022/04/09 01:13:45;;;;;;;11.63;2.40;;;7.80;57.60;;;;;;5061465;28;20519;-41
2022/04/09 01:16:13;;;;;;;12.93;2.90;;;7.80;57.60;;;;;;5058328;28;20503;-43
2022/04/09 01:18:41;;;;;;;14.85;3.15;;;7.80;57.50;;;;;;5060441;28;20086;-42
2022/04/09 01:21:08;;;;;;;13.60;3.03;;;7.80;57.50;;;;;;5062300;28;20059;-45
2022/04/09 01:23:38;;;;;;;15.90;3.97;;;7.80;57.50;;;;;;5058522;28;20055;-44
2022/04/09 01:26:06;;;;;;;14.48;3.47;;;7.80;57.50;;;;;;5059745;28;20056;-43
2022/04/09 01:28:34;;;;;;;11.18;3.40;;;7.80;57.60;;;;;;5060375;28;20052;-43
2022/04/09 01:31:02;;;;;;;16.40;2.88;;;7.80;57.50;;;;;;5059016;28;20055;-43
2022/04/09 01:33:30;;;;;;;14.38;2.63;;;7.80;57.50;;;;;;5060767;28;20060;-43
2022/04/09 01:35:57;;;;;;;11.07;3.08;;;7.80;57.50;;;;;;5053578;28;20063;-43
2022/04/09 01:38:25;;;;;;;8.35;2.92;;;7.80;58.00;;;;;;5039125;28;20053;-44
2022/04/09 01:40:55;;;;;;;23.00;3.53;;;7.80;57.50;;;;;;5050877;28;20404;-43
2022/04/09 01:43:22;;;;;;;17.58;3.17;;;7.70;57.50;;;;;;5043572;28;20428;-42
2022/04/09 01:45:50;;;;;;;17.15;2.72;;;7.70;57.60;;;;;;5057152;28;20044;-42
2022/04/09 01:48:17;;;;;;;13.05;2.65;;;7.70;57.60;;;;;;5060251;28;20686;-43
2022/04/09 01:50:45;;;;;;;19.38;3.83;;;7.70;57.70;;;;;;5060230;28;20060;-43
2022/04/09 01:53:13;;;;;;;21.40;3.35;;;7.70;57.80;;;;;;5060563;28;20056;-43
2022/04/09 01:55:43;;;;;;;23.63;3.13;;;7.70;58.00;;;;;;5054942;28;20439;-45
2022/04/09 01:58:12;;;;;;;14.73;3.20;;;7.60;57.90;;;;;;5047462;28;20423;-42
2022/04/09 02:00:39;;;;;;;16.77;3.40;;;7.70;58.00;;;;;;5048806;28;20052;-43
2022/04/09 02:03:07;;;;;;;15.98;2.70;;;7.70;58.00;;;;;;5051104;28;20808;-42
2022/04/09 02:05:35;;;;;;;16.63;2.85;;;7.60;57.90;;;;;;5048103;28;20075;-46
2022/04/09 02:08:02;;;;;;;28.02;3.55;;;7.60;58.00;;;;;;5047906;28;20063;-43
2022/04/09 02:10:31;;;;;;;18.83;3.05;;;7.60;58.00;;;;;;5046990;28;20051;-43
2022/04/09 02:12:59;;;;;;;21.23;3.05;;;7.60;58.00;;;;;;5059049;28;20060;-43
2022/04/09 02:15:28;;;;;;;14.98;2.88;;;7.60;58.00;;;;;;5059453;28;20056;-42
2022/04/09 02:17:55;;;;;;;19.73;2.80;;;7.60;58.10;;;;;;5060038;28;20061;-43
2022/04/09 02:20:22;;;;;;;13.88;3.10;;;7.60;58.10;;;;;;5060715;28;20045;-42
2022/04/09 02:22:50;;;;;;;14.20;2.97;;;7.70;58.10;;;;;;5055525;28;20501;-45
2022/04/09 02:25:18;;;;;;;14.18;3.00;;;7.70;58.20;;;;;;5060360;28;20060;-43
2022/04/09 02:27:46;;;;;;;18.38;3.05;;;7.70;58.10;;;;;;5063571;28;20428;-45
2022/04/09 02:30:14;;;;;;;17.38;3.80;;;7.70;58.10;;;;;;5064175;28;20515;-43
2022/04/09 02:32:48;;;;;;;12.82;2.60;;;7.70;58.10;;;;;;5057708;28;20056;-43
2022/04/09 02:35:16;;;;;;;12.43;2.63;;;7.70;58.10;;;;;;5063548;28;20511;-43
2022/04/09 02:37:44;;;;;;;20.27;2.70;;;7.70;58.00;;;;;;5058767;28;20052;-42
2022/04/09 02:40:12;;;;;;;16.00;3.13;;;7.70;58.00;;;;;;5079117;28;20060;-46
2022/04/09 02:42:41;;;;;;;13.43;3.33;;;7.70;57.90;;;;;;5084759;28;20060;-42
2022/04/09 02:45:11;;;;;;;20.77;3.50;;;7.70;57.90;;;;;;5085280;28;20681;-42
2022/04/09 02:47:39;;;;;;;22.27;3.97;;;7.70;57.90;;;;;;5084059;28;20060;-43
2022/04/09 02:50:09;;;;;;;17.92;3.63;;;7.70;57.90;;;;;;5085256;28;20052;-43
2022/04/09 02:52:38;;;;;;;16.27;3.72;;;7.70;57.90;;;;;;5084302;28;20415;-42
2022/04/09 02:55:08;;;;;;;17.13;2.95;;;7.70;57.80;;;;;;5084656;28;20052;-44
2022/04/09 02:57:37;;;;;;;17.58;3.08;;;7.70;57.90;;;;;;5083421;28;20055;-43
2022/04/09 03:00:08;;;;;;;30.27;3.65;;;7.60;57.90;;;;;;5081702;28;20488;-43
2022/04/09 03:02:36;;;;;;;18.40;3.30;;;7.70;58.00;;;;;;5084513;28;20056;-44
2022/04/09 03:05:04;;;;;;;12.05;3.10;;;7.70;58.00;;;;;;5083899;28;20056;-45
2022/04/09 03:07:33;;;;;;;16.55;3.17;;;7.70;58.10;;;;;;5084434;28;20056;-44
2022/04/09 03:10:01;;;;;;;19.23;4.00;;;7.70;58.10;;;;;;5084251;28;20055;-43
2022/04/09 03:12:28;;;;;;;21.38;3.88;;;7.70;58.00;;;;;;5080477;28;20063;-43
2022/04/09 03:14:56;;;;;;;26.63;4.43;;;7.70;58.00;;;;;;5084700;28;20385;-43
2022/04/09 03:17:23;;;;;;;21.23;3.75;;;7.70;57.90;;;;;;5083454;28;20542;-43
2022/04/09 03:19:51;;;;;;;23.73;3.92;;;7.70;57.90;;;;;;5083529;28;20048;-43
2022/04/09 03:22:18;;;;;;;21.70;3.40;;;7.70;57.90;;;;;;5083905;28;20052;-43
2022/04/09 03:24:47;;;;;;;19.15;3.35;;;7.70;57.90;;;;;;5070910;28;20491;-45
2022/04/09 03:27:14;;;;;;;21.33;4.22;;;7.70;57.90;;;;;;5080557;28;20043;-43
2022/04/09 03:29:42;;;;;;;18.45;3.53;;;7.70;57.90;;;;;;5078514;28;20524;-44
2022/04/09 03:32:10;;;;;;;10.63;3.05;;;7.70;57.90;;;;;;5082232;28;20070;-43
2022/04/09 03:34:37;;;;;;;23.60;3.50;;;7.70;57.90;;;;;;5080834;28;20063;-43
2022/04/09 03:37:05;;;;;;;18.95;4.05;;;7.80;57.80;;;;;;5081884;28;20052;-45
2022/04/09 03:39:33;;;;;;;30.42;3.63;;;7.70;57.80;;;;;;5082207;28;20064;-44
2022/04/09 03:42:02;;;;;;;20.85;3.63;;;7.70;57.70;;;;;;5082329;28;20044;-43
2022/04/09 03:44:29;;;;;;;21.27;3.50;;;7.70;57.70;;;;;;5080441;28;20063;-45
2022/04/09 03:47:00;;;;;;;21.23;3.72;;;7.80;57.70;;;;;;5082166;28;20051;-45
2022/04/09 03:49:29;;;;;;;15.88;3.25;;;7.80;57.70;;;;;;5082983;28;20052;-44
2022/04/09 03:51:56;;;;;;;21.63;4.25;;;7.80;57.60;;;;;;5082653;28;20040;-44
2022/04/09 03:54:24;;;;;;;13.63;2.67;;;7.80;57.60;;;;;;5083196;28;20055;-44
2022/04/09 03:56:51;;;;;;;24.75;4.22;;;7.80;57.50;;;;;;5080676;28;20048;-44
2022/04/09 03:59:21;;;;;;;25.08;3.78;;;7.80;57.80;;;;;;5082578;28;20047;-43
2022/04/09 04:01:49;;;;;;;21.33;3.55;;;7.80;57.30;;;;;;5081573;28;20044;-43
2022/04/09 04:04:16;;;;;;;17.23;3.58;;;7.70;57.20;;;;;;5080567;28;20059;-43
2022/04/09 04:06:44;;;;;;;20.48;3.85;;;7.80;57.30;;;;;;5081919;28;20052;-43
2022/04/09 04:09:12;;;;;;;18.27;3.38;;;7.70;57.30;;;;;;5082030;28;20070;-43
2022/04/09 04:11:40;;;;;;;22.23;3.92;;;7.80;57.40;;;;;;5082663;28;20044;-44
2022/04/09 04:14:07;;;;;;;22.50;3.80;;;7.70;57.30;;;;;;5083490;28;20055;-43
2022/04/09 04:16:36;;;;;;;16.52;3.28;;;7.80;57.30;;;;;;5077331;28;20579;-43
2022/04/09 04:19:04;;;;;;;24.35;3.55;;;7.80;57.30;;;;;;5081406;28;20045;-43
2022/04/09 04:21:31;;;;;;;19.30;3.78;;;7.80;57.30;;;;;;5083005;28;20056;-42
2022/04/09 04:23:59;;;;;;;24.77;4.65;;;7.80;57.20;;;;;;5082382;28;20051;-45
2022/04/09 04:26:26;;;;;;;29.65;3.88;;;7.80;57.20;;;;;;5082021;28;20048;-44
2022/04/09 04:28:53;;;;;;;24.92;4.45;;;7.80;57.10;;;;;;5083614;28;20048;-43
2022/04/09 04:31:21;;;;;;;19.83;3.40;;;7.80;57.10;;;;;;5082959;28;20512;-43
2022/04/09 04:33:50;;;;;;;17.00;3.33;;;7.80;57.20;;;;;;5083110;28;20052;-44
2022/04/09 04:36:17;;;;;;;18.90;4.18;;;7.80;57.20;;;;;;5083120;28;20056;-46
2022/04/09 04:38:45;;;;;;;26.02;4.10;;;7.80;57.20;;;;;;5080923;28;20593;-43
2022/04/09 04:41:12;;;;;;;19.70;3.97;;;7.80;57.20;;;;;;5080059;28;20059;-43
2022/04/09 04:43:40;;;;;;;18.73;3.97;;;7.90;57.20;;;;;;5083804;28;20048;-43
2022/04/09 04:46:07;;;;;;;24.38;3.85;;;7.80;57.10;;;;;;5082744;28;20404;-43
2022/04/09 04:48:35;;;;;;;20.23;3.47;;;7.80;57.20;;;;;;5078919;28;20058;-43
2022/04/09 04:51:03;;;;;;;17.23;3.85;;;7.80;57.10;;;;;;5082955;28;20051;-43
2022/04/09 04:53:31;;;;;;;26.88;3.85;;;7.80;57.10;;;;;;5081892;28;20052;-43
2022/04/09 04:55:58;;;;;;;20.02;3.38;;;7.80;57.10;;;;;;5082206;28;20412;-43
2022/04/09 04:58:26;;;;;;;24.08;4.53;;;7.90;57.10;;;;;;5075688;28;20063;-43
2022/04/09 05:00:53;;;;;;;32.75;4.82;;;7.80;57.00;;;;;;5081816;28;20055;-43
2022/04/09 05:03:21;;;;;;;23.88;3.95;;;7.80;57.00;;;;;;5080174;28;20052;-43
2022/04/09 05:05:48;;;;;;;18.33;3.70;;;7.80;57.10;;;;;;5079899;28;20056;-43
2022/04/09 05:08:17;;;;;;;18.30;3.55;;;7.80;57.10;;;;;;5081514;28;20048;-47
2022/04/09 05:10:45;;;;;;;25.88;4.15;;;7.80;57.10;;;;;;5082009;28;20056;-43
2022/04/09 05:13:12;;;;;;;23.10;3.70;;;7.80;57.10;;;;;;5079310;28;20048;-44
2022/04/09 05:15:40;;;;;;;21.85;3.67;;;7.80;57.00;;;;;;5079981;28;20058;-43
2022/04/09 05:18:08;;;;;;;28.95;3.63;;;7.80;57.00;;;;;;5081228;28;20400;-46
2022/04/09 05:20:35;;;;;;;20.33;3.47;;;7.80;57.10;;;;;;5079906;28;20048;-43
2022/04/09 05:23:03;;;;;;;21.05;3.55;;;7.80;57.00;;;;;;5078900;28;20048;-43
2022/04/09 05:25:32;;;;;;;19.38;3.22;;;7.80;57.00;;;;;;5081654;28;20048;-44
2022/04/09 05:28:03;;;;;;;27.50;4.15;;;7.80;57.10;;;;;;5080853;28;20052;-44
2022/04/09 05:30:31;;;;;;;25.98;4.40;;;7.80;57.00;;;;;;5080478;28;20498;-43
2022/04/09 05:32:58;;;;;;;20.75;3.60;;;7.80;57.00;;;;;;5081079;28;20498;-43
2022/04/09 05:35:26;;;;;;;23.40;4.03;;;7.80;57.00;;;;;;5077839;28;20056;-43
2022/04/09 05:37:53;;;;;;;20.48;3.80;;;7.80;57.00;;;;;;5080487;28;20055;-43
2022/04/09 05:40:22;;;;;;;27.40;4.13;;;7.90;57.00;;;;;;5060815;28;20056;-43
2022/04/09 05:42:51;;;;;;;21.25;4.18;;;7.90;57.00;;;;;;5056726;28;20068;-44
2022/04/09 05:45:18;;;;;;;23.00;4.47;;;7.90;56.80;;;;;;5061514;28;20059;-44
2022/04/09 05:47:47;;;;;;;21.33;3.45;;;7.90;56.80;;;;;;5059584;28;20052;-44
2022/04/09 05:50:15;;;;;;;17.00;3.58;;;7.90;56.90;;;;;;5059295;28;20431;-43
2022/04/09 05:52:43;;;;;;;27.67;4.18;;;8.00;57.00;;;;;;5057538;28;20059;-48
2022/04/09 05:55:11;;;;;;;22.92;3.45;;;7.90;56.80;;;;;;5061866;28;20511;-43
2022/04/09 05:57:40;;;;;;;19.63;3.40;;;8.00;56.80;;;;;;5064734;28;20048;-43
2022/04/09 06:00:11;;;;;;;15.65;3.55;;;8.00;56.70;;;;;;5062155;28;20061;-43
2022/04/09 06:02:39;;;;;;;25.52;3.97;;;8.00;56.70;;;;;;5062573;28;20059;-43
2022/04/09 06:05:08;;;;;;;25.05;4.22;;;8.00;56.70;;;;;;5064467;28;20056;-43
2022/04/09 06:07:36;;;;;;;27.23;4.47;;;8.00;56.70;;;;;;5064170;28;20052;-43
2022/04/09 06:10:05;;;;;;;27.42;3.42;;;8.10;56.70;;;;;;5064820;28;20419;-43
2022/04/09 06:12:34;;;;;;;18.60;3.97;;;8.10;56.70;;;;;;5064601;28;20044;-44
2022/04/09 06:15:01;;;;;;;16.92;3.35;;;8.10;56.60;;;;;;5064212;28;20059;-44
2022/04/09 06:17:31;;;;;;;14.90;3.25;;;8.10;56.60;;;;;;5064448;28;20084;-43
2022/04/09 06:19:58;;;;;;;21.88;4.30;;;8.10;56.60;;;;;;5062711;28;20048;-44
2022/04/09 06:22:25;;;;;;;18.95;3.72;;;8.10;56.50;;;;;;5061837;28;20052;-43
2022/04/09 06:24:53;;;;;;;22.40;3.17;;;8.10;56.40;;;;;;5063985;28;20056;-43
2022/04/09 06:27:20;;;;;;;18.33;4.15;;;8.10;56.40;;;;;;5063310;28;20049;-43
2022/04/09 06:29:49;;;;;;;20.50;4.18;;;8.20;56.40;;;;;;5055003;28;20052;-44
2022/04/09 06:32:16;;;;;;;24.02;3.45;;;8.20;56.50;;;;;;5057476;28;20055;-43
2022/04/09 06:34:45;;;;;;;22.77;4.03;;;8.20;56.50;;;;;;5059816;28;20059;-43
2022/04/09 06:37:12;;;;;;;15.77;3.55;;;8.20;56.50;;;;;;5061511;28;20052;-43
2022/04/09 06:39:40;;;;;;;19.45;3.80;;;8.20;56.50;;;;;;5070806;28;20052;-44
2022/04/09 06:42:08;;;;;;;27.13;4.53;;;8.20;56.40;;;;;;5082345;28;20059;-43
2022/04/09 06:44:35;;;;;;;25.38;4.30;;;8.30;56.50;;;;;;5084575;28;20063;-44
2022/04/09 06:47:08;;;;;;;18.42;3.17;;;8.20;56.40;;;;;;5082618;28;20075;-44
2022/04/09 06:49:38;;;;;;;24.30;4.78;;;8.30;56.40;;;;;;5083751;28;20063;-43
2022/04/09 06:52:07;;;;;;;15.98;4.00;;;8.30;56.50;;;;;;5082308;28;20044;-43
2022/04/09 06:54:35;;;;;;;28.42;4.13;;;8.30;56.50;;;;;;5079561;28;20060;-43
2022/04/09 06:57:02;;;;;;;21.73;4.00;;;8.30;56.40;;;;;;5075836;28;20053;-42
2022/04/09 06:59:30;;;;;;;25.98;3.65;;;8.40;56.50;;;;;;5075505;28;20056;-43
2022/04/09 07:01:57;;;;;;;16.88;3.53;;;8.40;56.50;;;;;;5075621;28;20056;-44
2022/04/09 07:04:25;;;;;;;24.98;4.85;;;8.50;56.40;;;;;;5076436;28;20041;-44
2022/04/09 07:06:52;;;;;;;23.38;4.38;;;8.50;56.10;;;;;;5077908;28;20063;-43
2022/04/09 07:09:21;;;;;;;18.90;4.10;;;8.50;56.40;;;;;;5073060;28;20055;-45
2022/04/09 07:11:48;;;;;;;26.50;4.82;;;8.50;55.80;;;;;;5078382;28;20052;-44
2022/04/09 07:14:16;;;;;;;25.63;4.18;;;8.60;55.80;;;;;;5083374;28;20055;-43
2022/04/09 07:16:45;;;;;;;17.48;4.07;;;8.60;56.30;;;;;;5080686;28;20056;-43
2022/04/09 07:19:12;;;;;;;17.40;3.85;;;8.70;56.00;;;;;;5082775;28;20492;-46
2022/04/09 07:21:40;;;;;;;23.63;4.35;;;8.70;55.90;;;;;;5077983;28;20503;-43
2022/04/09 07:24:08;;;;;;;30.02;4.65;;;8.70;55.70;;;;;;5081104;28;20487;-44
2022/04/09 07:26:37;;;;;;;28.95;5.03;;;8.70;55.50;;;;;;5079177;28;20056;-44
2022/04/09 07:29:05;;;;;;;20.45;3.50;;;8.70;55.50;;;;;;5083082;28;20048;-43
2022/04/09 07:31:32;;;;;;;18.08;3.95;;;8.80;55.70;;;;;;5082654;28;20051;-42
2022/04/09 07:34:00;;;;;;;22.10;3.33;;;8.90;55.50;;;;;;5081644;28;20052;-42
2022/04/09 07:36:28;;;;;;;18.60;3.65;;;8.90;55.10;;;;;;5077010;28;20051;-43
2022/04/09 07:38:55;;;;;;;27.00;3.88;;;9.00;55.00;;;;;;5079113;28;20056;-43
2022/04/09 07:41:23;;;;;;;16.35;2.78;;;9.00;55.00;;;;;;5080761;28;20052;-43
2022/04/09 07:43:52;;;;;;;22.88;3.55;;;9.10;54.90;;;;;;5082193;28;20051;-44
2022/04/09 07:46:19;;;;;;;20.95;3.65;;;9.20;54.50;;;;;;5081121;28;20083;-46
2022/04/09 07:48:47;;;;;;;24.38;5.43;;;9.20;54.00;;;;;;5080951;28;20051;-46
2022/04/09 07:51:14;;;;;;;29.08;5.10;;;9.20;54.10;;;;;;5082107;28;20048;-44
2022/04/09 07:53:42;;;;;;;25.65;5.40;;;9.20;54.60;;;;;;5080278;28;20511;-44
2022/04/09 07:56:09;;;;;;;19.20;3.88;;;9.30;54.60;;;;;;5077427;28;20091;-44
2022/04/09 07:58:37;;;;;;;44.33;15.85;;;9.30;54.10;;;;;;5075364;28;20067;-43
2022/04/09 08:01:06;;;;;;;49.78;21.98;;;9.40;53.60;;;;;;5080208;28;20374;-43
2022/04/09 08:03:33;;;;;;;22.15;5.72;;;9.40;53.70;;;;;;5081076;28;20048;-44
2022/04/09 08:06:01;;;;;;;36.17;9.30;;;9.50;53.50;;;;;;5079923;28;20048;-43
2022/04/09 08:08:31;;;;;;;29.15;7.72;;;9.50;53.60;;;;;;5081851;28;20071;-42
2022/04/09 08:10:59;;;;;;;17.63;4.82;;;9.60;53.40;;;;;;5079557;28;20063;-44
2022/04/09 08:13:27;;;;;;;20.23;5.43;;;9.70;53.20;;;;;;5079622;28;20051;-43
2022/04/09 08:15:55;;;;;;;21.25;3.90;;;9.80;53.30;;;;;;5080693;28;20059;-44
2022/04/09 08:18:25;;;;;;;22.17;6.47;;;9.80;53.20;;;;;;5078535;28;20055;-46
2022/04/09 08:20:53;;;;;;;34.75;8.98;;;9.90;53.10;;;;;;5081355;28;20059;-42
2022/04/09 08:23:20;;;;;;;31.67;10.65;;;10.00;52.90;;;;;;5080270;28;20066;-43
2022/04/09 08:25:49;;;;;;;26.42;8.75;;;10.00;53.00;;;;;;5081851;28;20116;-44
2022/04/09 08:28:17;;;;;;;32.83;6.85;;;10.10;52.00;;;;;;5079959;28;20048;-45
2022/04/09 08:30:45;;;;;;;28.83;5.93;;;10.20;52.20;;;;;;5078265;28;20052;-43
2022/04/09 08:33:15;;;;;;;27.80;6.45;;;10.20;51.60;;;;;;5079102;28;20668;-43
2022/04/09 08:35:46;;;;;;;21.00;3.78;;;10.20;51.30;;;;;;5077469;28;20617;-43
2022/04/09 08:38:14;;;;;;;27.48;5.65;;;10.20;51.40;;;;;;5082143;28;20055;-45
2022/04/09 08:40:43;;;;;;;14.30;3.10;;;10.30;50.90;;;;;;5061243;28;20053;-44
2022/04/09 08:43:11;;;;;;;21.65;3.35;;;10.30;50.70;;;;;;5057718;28;20066;-43
2022/04/09 08:45:40;;;;;;;25.33;3.63;;;10.30;50.40;;;;;;5060900;28;20390;-44
2022/04/09 08:48:09;;;;;;;20.70;3.65;;;10.40;51.00;;;;;;5061876;28;20075;-44
2022/04/09 08:50:37;;;;;;;17.20;3.10;;;10.40;50.80;;;;;;5061210;28;20056;-44
2022/04/09 08:53:08;;;;;;;20.88;3.60;;;10.40;50.60;;;;;;5060766;28;20052;-44
2022/04/09 08:55:35;;;;;;;20.25;3.80;;;10.50;50.70;;;;;;5061748;28;20052;-43
2022/04/09 08:58:03;;;;;;;14.40;3.30;;;10.50;50.80;;;;;;5059093;28;20048;-44
2022/04/09 09:00:32;;;;;;;16.13;3.35;;;10.60;50.80;;;;;;5061986;28;20775;-43
2022/04/09 09:03:02;;;;;;;19.73;4.05;;;10.60;50.60;;;;;;5058079;28;20056;-43
2022/04/09 09:05:31;;;;;;;16.08;3.38;;;10.70;50.40;;;;;;5060477;28;20059;-43
2022/04/09 09:08:00;;;;;;;22.67;6.55;;;10.70;50.30;;;;;;5060028;28;20059;-43
2022/04/09 09:10:29;;;;;;;19.95;5.30;;;10.70;50.10;;;;;;5060497;28;20052;-43
2022/04/09 09:13:01;;;;;;;16.33;4.10;;;10.80;50.50;;;;;;5058319;28;20056;-43
2022/04/09 09:15:29;;;;;;;25.77;7.07;;;10.80;50.30;;;;;;5060736;28;20068;-43
2022/04/09 09:17:57;;;;;;;19.90;4.45;;;10.80;50.30;;;;;;5062391;28;20053;-44
2022/04/09 09:20:26;;;;;;;59.92;27.83;;;10.80;49.50;;;;;;5060416;28;20048;-45
2022/04/09 09:22:55;;;;;;;27.42;10.73;;;10.90;49.70;;;;;;5059485;28;20519;-44
2022/04/09 09:25:22;;;;;;;18.58;3.75;;;10.90;49.70;;;;;;5061368;28;20052;-44
2022/04/09 09:27:58;;;;;;;18.85;5.13;;;10.90;48.90;;;;;;5061130;28;20052;-43
2022/04/09 09:30:26;;;;;;;12.07;2.90;;;11.00;48.90;;;;;;5061936;28;20056;-43
2022/04/09 09:33:14;;;;;;;19.55;3.60;;;11.00;48.80;;;;;;5055565;28;20056;-45
2022/04/09 09:35:52;;;;;;;17.58;2.80;;;11.10;48.70;;;;;;5053124;28;20056;-48
2022/04/09 09:38:21;;;;;;;18.20;3.25;;;11.10;48.80;;;;;;5059697;28;20496;-44
2022/04/09 09:40:48;;;;;;;24.40;3.40;;;11.20;48.50;;;;;;5056428;28;20052;-42
2022/04/09 09:43:18;;;;;;;13.68;3.10;;;11.30;49.00;;;;;;5057880;28;20048;-43
2022/04/09 09:45:47;;;;;;;15.55;3.33;;;11.30;47.60;;;;;;5059981;28;20068;-43
2022/04/09 09:48:22;;;;;;;11.88;2.33;;;11.30;47.80;;;;;;5058190;28;20052;-43
2022/04/09 09:50:49;;;;;;;15.85;3.38;;;11.40;46.90;;;;;;5059810;28;20059;-45
2022/04/09 09:53:26;;;;;;;16.20;3.40;;;11.30;46.80;;;;;;5060539;28;21172;-44
2022/04/09 09:55:54;;;;;;;43.10;3.95;;;11.30;46.90;;;;;;5060513;28;20087;-44
2022/04/09 09:58:24;;;;;;;14.07;6.65;;;11.40;47.80;;;;;;5059809;28;20058;-45
2022/04/09 10:00:52;;;;;;;20.40;7.25;;;11.40;47.40;;;;;;5060842;28;20075;-45
2022/04/09 10:03:20;;;;;;;14.73;4.55;;;11.50;47.40;;;;;;5060527;28;20055;-43
2022/04/09 10:05:50;;;;;;;12.63;3.13;;;11.50;47.10;;;;;;5060935;28;20695;-44
2022/04/09 10:08:18;;;;;;;22.73;6.57;;;11.60;46.00;;;;;;5061708;28;20063;-44
2022/04/09 10:10:48;;;;;;;19.10;7.43;;;11.60;45.80;;;;;;5060319;28;20060;-43
2022/04/09 10:13:23;;;;;;;34.40;18.10;;;11.60;45.70;;;;;;5059562;28;20056;-42
2022/04/09 10:15:52;;;;;;;21.20;7.65;;;11.60;45.90;;;;;;5060985;28;20389;-44
2022/04/09 10:18:23;;;;;;;22.15;7.43;;;11.60;46.20;;;;;;5061989;28;20052;-46
2022/04/09 10:20:53;;;;;;;18.90;4.03;;;11.60;46.10;;;;;;5061344;28;20063;-43
2022/04/09 10:23:22;;;;;;;16.60;3.22;;;11.60;45.50;;;;;;5059573;28;20067;-44
2022/04/09 10:25:52;;;;;;;43.10;4.95;;;11.50;45.80;;;;;;5062054;28;20075;-43
2022/04/09 10:28:38;;;;;;;16.30;3.40;;;11.50;45.80;;;;;;5060593;28;20067;-43
2022/04/09 10:31:33;;;;;;;21.27;4.15;;;11.50;46.00;;;;;;5058597;28;20064;-43
2022/04/09 10:34:02;;;;;;;15.38;3.33;;;11.50;45.80;;;;;;5060858;28;20519;-42
2022/04/09 10:36:59;;;;;;;14.02;3.20;;;11.50;45.20;;;;;;5058234;28;20063;-45
2022/04/09 10:39:29;;;;;;;12.05;2.70;;;11.50;45.30;;;;;;5071266;28;20052;-44
2022/04/09 10:41:57;;;;;;;10.77;3.13;;;11.60;45.50;;;;;;5080956;28;20492;-44
2022/04/09 10:44:37;;;;;;;11.02;3.22;;;11.70;45.30;;;;;;5081516;28;20052;-44
2022/04/09 10:47:05;;;;;;;13.45;2.00;;;11.70;45.20;;;;;;5080546;28;20055;-43
2022/04/09 10:49:33;;;;;;;19.55;2.42;;;11.80;44.70;;;;;;5076221;28;20415;-46
2022/04/09 10:52:11;;;;;;;17.08;2.83;;;11.80;44.80;;;;;;5076088;28;20541;-45
2022/04/09 10:54:41;;;;;;;12.82;2.90;;;11.80;43.30;;;;;;5076122;28;20048;-44
2022/04/09 10:57:10;;;;;;;15.00;3.05;;;11.90;43.90;;;;;;5078956;28;20063;-43
2022/04/09 10:59:39;;;;;;;13.02;3.20;;;11.90;44.10;;;;;;5075698;28;20052;-43
2022/04/09 11:02:07;;;;;;;8.13;2.15;;;12.00;44.30;;;;;;5074562;28;20052;-45
2022/04/09 11:04:42;;;;;;;11.90;2.55;;;12.00;43.70;;;;;;5070221;28;20052;-44
2022/04/09 11:07:15;;;;;;;13.00;2.63;;;12.10;43.00;;;;;;5073465;28;20051;-44
2022/04/09 11:09:51;;;;;;;14.07;2.30;;;12.10;42.90;;;;;;5082968;28;20043;-44
2022/04/09 11:12:20;;;;;;;10.68;2.33;;;12.10;41.90;;;;;;5082486;28;20048;-44
2022/04/09 11:14:52;;;;;;;15.07;2.97;;;12.20;41.70;;;;;;5083717;28;20558;-43
2022/04/09 11:17:23;;;;;;;15.90;2.55;;;12.10;41.20;;;;;;5083423;28;20507;-43
2022/04/09 11:19:52;;;;;;;13.48;2.75;;;12.10;41.40;;;;;;5082928;28;20055;-45
2022/04/09 11:22:19;;;;;;;14.48;2.28;;;12.10;41.80;;;;;;5081790;28;20719;-44
2022/04/09 11:24:47;;;;;;;13.90;1.98;;;12.10;41.50;;;;;;5080766;28;20052;-42
2022/04/09 11:27:15;;;;;;;18.98;2.60;;;12.00;41.40;;;;;;5078640;28;20056;-44
2022/04/09 11:29:44;;;;;;;12.18;3.03;;;12.00;42.20;;;;;;5084234;28;20055;-43
2022/04/09 11:32:20;;;;;;;16.52;5.28;;;12.00;42.60;;;;;;5082541;28;20455;-47
2022/04/09 11:34:49;;;;;;;11.48;2.63;;;12.00;43.00;;;;;;5083264;28;20051;-45
2022/04/09 11:37:17;;;;;;;9.50;1.83;;;12.00;42.80;;;;;;5084473;28;20056;-43
2022/04/09 11:39:46;;;;;;;9.77;1.98;;;12.00;42.20;;;;;;5080098;28;20067;-43
2022/04/09 11:42:14;;;;;;;9.63;2.47;;;12.10;41.50;;;;;;5082465;28;20052;-43
2022/04/09 11:44:42;;;;;;;8.80;2.08;;;12.10;41.80;;;;;;5082968;28;20056;-45
2022/04/09 11:47:15;;;;;;;9.95;2.55;;;12.10;41.80;;;;;;5084884;28;20055;-43
2022/04/09 11:49:45;;;;;;;9.75;2.22;;;12.10;41.60;;;;;;5080663;28;20063;-43
2022/04/09 11:52:13;;;;;;;8.57;1.63;;;12.20;41.80;;;;;;5080788;28;20048;-43
2022/04/09 11:54:43;;;;;;;10.30;1.98;;;12.20;42.00;;;;;;5081669;28;20393;-44
2022/04/09 11:57:12;;;;;;;7.00;2.35;;;12.20;42.40;;;;;;5080411;28;20385;-42
2022/04/09 11:59:41;;;;;;;8.07;1.85;;;12.30;42.30;;;;;;5075983;28;20048;-42
2022/04/09 12:02:21;;;;;;;9.65;2.92;;;12.30;41.90;;;;;;5073172;28;20066;-44
2022/04/09 12:04:51;;;;;;;6.03;2.00;;;12.30;41.10;;;;;;5072372;28;20044;-42
2022/04/09 12:07:19;;;;;;;8.38;1.25;;;12.30;41.80;;;;;;5080255;28;20051;-43
2022/04/09 12:09:47;;;;;;;1.88;0.70;;;12.30;42.30;;;;;;5082342;28;20067;-42
2022/04/09 12:12:17;;;;;;;4.65;1.08;;;12.20;42.10;;;;;;5080520;28;20052;-45
2022/04/09 12:14:54;;;;;;;3.78;1.90;;;12.20;41.50;;;;;;5081094;28;20495;-49
2022/04/09 12:17:23;;;;;;;5.60;1.40;;;12.10;41.60;;;;;;5083232;28;20059;-43
2022/04/09 12:19:52;;;;;;;5.20;1.27;;;12.10;41.60;;;;;;5081548;28;20435;-43
2022/04/09 12:22:23;;;;;;;7.70;2.22;;;12.00;41.10;;;;;;5083009;28;20044;-43
2022/04/09 12:25:03;;;;;;;5.78;1.85;;;11.90;41.60;;;;;;5080660;28;20052;-43
2022/04/09 12:27:44;;;;;;;7.13;1.60;;;11.90;41.80;;;;;;5063914;28;20488;-43
2022/04/09 12:30:12;;;;;;;6.88;2.00;;;11.80;42.20;;;;;;5083569;28;20058;-43
2022/04/09 12:32:41;;;;;;;6.72;2.47;;;11.80;42.50;;;;;;5080230;28;20059;-43
2022/04/09 12:35:12;;;;;;;4.78;1.58;;;11.70;42.40;;;;;;5079235;28;20067;-43
2022/04/09 12:37:46;;;;;;;15.13;3.42;;;11.60;42.70;;;;;;5077158;28;20427;-43
2022/04/09 12:40:16;;;;;;;5.75;2.10;;;11.60;43.20;;;;;;5061620;28;20060;-43
2022/04/09 12:42:44;;;;;;;15.45;4.47;;;11.50;43.00;;;;;;5052178;28;20060;-48
2022/04/09 12:45:16;;;;;;;6.90;1.90;;;11.50;43.60;;;;;;5053625;28;20068;-44
2022/04/09 12:47:52;;;;;;;6.63;1.50;;;11.50;43.50;;;;;;5054381;28;20052;-45
2022/04/09 12:50:27;;;;;;;4.13;1.73;;;11.40;43.90;;;;;;5053557;28;20056;-44
2022/04/09 12:52:56;;;;;;;6.50;1.63;;;11.20;44.30;;;;;;5052881;28;20079;-46
2022/04/09 12:55:25;;;;;;;3.08;1.20;;;11.20;43.80;;;;;;5053854;28;20045;-44